Lowville, New York
Current Conditions -  °F | °C
As of 1:58 AM on Monday 22 Dec 2014 (Local Time) from KGTB Reporting Station
Few Clouds Few Clouds  
Wind Chill: 10°   Ceiling: Unl
Heat Index: 20°   Visibility: 10mi
Dew Point: 18°   Wind: 9mph
Humidity: 90%   Direction: 140°SE
Pressure: 30.31"   Gusts: NA
Location:  43.79°N, 75.49°W
Report Text: KGTB 220658Z AUTO 14008KT 10SM FEW030 M06/M08 A3031 RMK AO2 SLP275 T10641078
Loading
Personal Weather Stations






























Interactive Weather Map New forecast layout! Learn more

10-Day Weather Forecast

Advertisements
Track Severe Weather on mobile